createdAt,value
2023-11-25T00:01:10.376Z,3.60
2023-11-25T00:03:38.820Z,3.60
2023-11-25T00:06:07.728Z,3.60
2023-11-25T00:08:35.847Z,3.50
2023-11-25T00:11:12.205Z,3.40
2023-11-25T00:13:47.775Z,3.40
2023-11-25T00:16:16.034Z,3.40
2023-11-25T00:18:44.745Z,3.40
2023-11-25T00:21:12.912Z,3.40
2023-11-25T00:23:41.096Z,3.40
2023-11-25T00:26:09.455Z,3.30
2023-11-25T00:28:38.859Z,3.30
2023-11-25T00:31:08.674Z,3.20
2023-11-25T00:33:36.868Z,3.20
2023-11-25T00:36:06.515Z,3.10
2023-11-25T00:38:34.785Z,3.10
2023-11-25T00:41:03.077Z,3.10
2023-11-25T00:43:33.071Z,3.10
2023-11-25T00:46:02.716Z,3.10
2023-11-25T00:48:36.391Z,3.10
2023-11-25T00:51:04.929Z,3.10
2023-11-25T00:53:33.089Z,3.00
2023-11-25T00:56:02.549Z,3.00
2023-11-25T00:58:30.848Z,3.00
2023-11-25T01:00:59.116Z,3.00
2023-11-25T01:03:28.691Z,3.00
2023-11-25T01:06:00.848Z,3.00
2023-11-25T01:08:30.416Z,3.00
2023-11-25T01:10:58.863Z,3.00
2023-11-25T01:13:27.937Z,3.00
2023-11-25T01:15:56.356Z,2.90
2023-11-25T01:18:24.710Z,3.00
2023-11-25T01:20:56.218Z,3.00
2023-11-25T01:23:27.415Z,3.00
2023-11-25T01:25:55.572Z,3.00
2023-11-25T01:28:23.770Z,3.10
2023-11-25T01:30:52.020Z,3.10
2023-11-25T01:33:21.035Z,3.10
2023-11-25T01:35:49.567Z,3.10
2023-11-25T01:38:19.313Z,3.20
2023-11-25T01:40:48.949Z,3.10
2023-11-25T01:43:17.209Z,3.10
2023-11-25T01:45:48.388Z,3.20
2023-11-25T01:48:17.282Z,3.20
2023-11-25T01:50:47.149Z,3.30
2023-11-25T01:53:18.498Z,3.40
2023-11-25T01:55:49.340Z,3.40
2023-11-25T01:58:21.173Z,3.50
2023-11-25T02:00:53.870Z,3.50
2023-11-25T02:03:23.827Z,3.50
2023-11-25T02:05:56.060Z,3.60
2023-11-25T02:08:25.006Z,3.70
2023-11-25T02:10:55.251Z,3.70
2023-11-25T02:13:26.487Z,3.80
2023-11-25T02:15:57.171Z,3.80
2023-11-25T02:18:26.380Z,3.80
2023-11-25T02:20:55.801Z,3.80
2023-11-25T02:23:25.526Z,3.90
2023-11-25T02:25:54.892Z,3.90
2023-11-25T02:28:23.271Z,3.90
2023-11-25T02:30:52.732Z,3.90
2023-11-25T02:33:21.272Z,3.90
2023-11-25T02:35:49.783Z,3.90
2023-11-25T02:38:18.073Z,3.90
2023-11-25T02:40:50.208Z,3.90
2023-11-25T02:43:19.178Z,4.00
2023-11-25T02:45:49.144Z,4.00
2023-11-25T02:48:18.147Z,4.00
2023-11-25T02:50:46.639Z,4.00
2023-11-25T02:53:14.995Z,4.00
2023-11-25T02:55:44.443Z,4.00
2023-11-25T02:58:14.861Z,4.00
2023-11-25T03:00:44.673Z,4.00
2023-11-25T03:03:18.032Z,4.00
2023-11-25T03:05:48.920Z,4.00
2023-11-25T03:08:18.552Z,4.00
2023-11-25T03:10:47.973Z,4.00
2023-11-25T03:13:18.157Z,4.00
2023-11-25T03:15:46.684Z,4.00
2023-11-25T03:18:15.208Z,4.10
2023-11-25T03:20:43.392Z,4.10
2023-11-25T03:23:11.931Z,4.10
2023-11-25T03:25:40.480Z,4.10
2023-11-25T03:28:11.735Z,4.10
2023-11-25T03:30:42.745Z,4.00
2023-11-25T03:33:11.797Z,4.00
2023-11-25T03:35:40.222Z,3.90
2023-11-25T03:38:09.388Z,3.90
2023-11-25T03:40:37.658Z,3.80
2023-11-25T03:43:05.797Z,3.90
2023-11-25T03:45:33.963Z,3.80
2023-11-25T03:48:04.423Z,3.70
2023-11-25T03:50:32.619Z,3.70
2023-11-25T03:53:00.756Z,3.70
2023-11-25T03:55:29.168Z,3.70
2023-11-25T03:57:57.345Z,3.70
2023-11-25T04:00:25.448Z,3.60
2023-11-25T04:02:53.995Z,3.60
2023-11-25T04:05:24.533Z,3.60
2023-11-25T04:07:53.896Z,3.60
2023-11-25T04:10:22.501Z,3.60
2023-11-25T04:12:53.771Z,3.70
2023-11-25T04:15:22.604Z,3.70
2023-11-25T04:17:52.268Z,3.70
2023-11-25T04:20:25.890Z,3.70
2023-11-25T04:22:56.896Z,3.70
2023-11-25T04:25:26.101Z,3.70
2023-11-25T04:27:54.304Z,3.70
2023-11-25T04:30:24.094Z,3.70
2023-11-25T04:32:52.527Z,3.80
2023-11-25T04:35:20.887Z,3.80
2023-11-25T04:37:49.399Z,3.80
2023-11-25T04:40:19.707Z,3.80
2023-11-25T04:42:47.994Z,3.90
2023-11-25T04:45:18.413Z,3.90
2023-11-25T04:47:48.572Z,3.90
2023-11-25T04:50:17.933Z,3.90
2023-11-25T04:52:46.576Z,3.80
2023-11-25T04:55:16.223Z,3.90
2023-11-25T04:57:46.366Z,3.90
2023-11-25T05:00:16.293Z,3.90
2023-11-25T05:02:44.827Z,3.90
2023-11-25T05:05:14.302Z,3.90
2023-11-25T05:07:42.923Z,3.80
2023-11-25T05:10:12.600Z,3.90
2023-11-25T05:12:42.641Z,3.90
2023-11-25T05:15:13.381Z,3.90
2023-11-25T05:17:42.036Z,3.80
2023-11-25T05:20:16.996Z,3.90
2023-11-25T05:22:48.408Z,3.90
2023-11-25T05:25:16.955Z,3.90
2023-11-25T05:27:45.964Z,3.90
2023-11-25T05:30:16.357Z,3.90
2023-11-25T05:32:45.130Z,3.90
2023-11-25T05:35:14.133Z,3.90
2023-11-25T05:37:44.407Z,3.90
2023-11-25T05:40:14.856Z,3.90
2023-11-25T05:42:48.903Z,3.90
2023-11-25T05:45:21.681Z,3.80
2023-11-25T05:47:51.400Z,3.80
2023-11-25T05:50:22.661Z,3.80
2023-11-25T05:52:52.108Z,3.80
2023-11-25T05:55:22.139Z,3.80
2023-11-25T05:57:52.085Z,3.70
2023-11-25T06:00:24.347Z,3.70
2023-11-25T06:02:54.470Z,3.70
2023-11-25T06:05:22.875Z,3.70
2023-11-25T06:07:51.577Z,3.70
2023-11-25T06:10:21.172Z,3.70
2023-11-25T06:12:49.563Z,3.70
2023-11-25T06:15:19.987Z,3.70
2023-11-25T06:17:49.645Z,3.70
2023-11-25T06:20:18.101Z,3.70
2023-11-25T06:22:46.380Z,3.70
2023-11-25T06:25:17.331Z,3.70
2023-11-25T06:27:48.293Z,3.70
2023-11-25T06:30:17.264Z,3.70
2023-11-25T06:32:45.569Z,3.60
2023-11-25T06:35:15.337Z,3.60
2023-11-25T06:37:44.038Z,3.60
2023-11-25T06:40:15.191Z,3.60
2023-11-25T06:42:44.123Z,3.60
2023-11-25T06:45:15.104Z,3.60
2023-11-25T06:47:44.195Z,3.60
2023-11-25T06:50:15.455Z,3.60
2023-11-25T06:52:43.882Z,3.50
2023-11-25T06:55:12.119Z,3.50
2023-11-25T06:57:41.985Z,3.50
2023-11-25T07:00:12.367Z,3.50
2023-11-25T07:02:42.018Z,3.50
2023-11-25T07:05:10.507Z,3.60
2023-11-25T07:07:39.320Z,3.60
2023-11-25T07:10:11.310Z,3.60
2023-11-25T07:12:39.764Z,3.60
2023-11-25T07:15:09.351Z,3.60
2023-11-25T07:17:38.784Z,3.60
2023-11-25T07:20:12.996Z,3.70
2023-11-25T07:22:43.576Z,3.70
2023-11-25T07:25:13.186Z,3.70
2023-11-25T07:27:42.672Z,3.70
2023-11-25T07:30:11.690Z,3.80
2023-11-25T07:32:40.138Z,3.80
2023-11-25T07:35:09.973Z,3.90
2023-11-25T07:37:38.779Z,3.90
2023-11-25T07:40:14.442Z,3.90
2023-11-25T07:42:44.264Z,4.00
2023-11-25T07:45:12.854Z,3.90
2023-11-25T07:47:43.046Z,3.80
2023-11-25T07:50:12.060Z,3.80
2023-11-25T07:52:40.809Z,3.90
2023-11-25T07:55:11.219Z,3.90
2023-11-25T07:57:39.418Z,4.00
2023-11-25T08:00:08.830Z,4.00
2023-11-25T08:02:40.535Z,4.10
2023-11-25T08:05:09.651Z,4.20
2023-11-25T08:07:37.779Z,4.40
2023-11-25T08:10:08.807Z,4.40
2023-11-25T08:12:38.359Z,4.50
2023-11-25T08:15:07.429Z,4.50
2023-11-25T08:17:35.786Z,4.60
2023-11-25T08:20:04.161Z,4.70
2023-11-25T08:22:32.412Z,4.70
2023-11-25T08:25:02.615Z,4.80
2023-11-25T08:27:31.752Z,4.80
2023-11-25T08:30:01.359Z,5.00
2023-11-25T08:32:32.014Z,5.10
2023-11-25T08:35:00.790Z,5.20
2023-11-25T08:37:29.397Z,5.30
2023-11-25T08:39:57.583Z,5.40
2023-11-25T08:42:30.061Z,5.50
2023-11-25T08:44:58.417Z,5.50
2023-11-25T08:47:27.951Z,5.60
2023-11-25T08:49:57.842Z,5.70
2023-11-25T08:52:28.406Z,5.80
2023-11-25T08:54:56.796Z,5.90
2023-11-25T08:57:25.060Z,5.90
2023-11-25T08:59:53.272Z,6.00
2023-11-25T09:02:23.819Z,6.10
2023-11-25T09:05:03.730Z,6.10
2023-11-25T09:07:39.279Z,6.00
2023-11-25T09:10:09.000Z,5.80
2023-11-25T09:12:37.783Z,5.70
2023-11-25T09:15:09.284Z,5.70
2023-11-25T09:17:41.243Z,5.70
2023-11-25T09:20:14.460Z,5.80
2023-11-25T09:22:43.543Z,5.90
2023-11-25T09:25:13.321Z,6.00
2023-11-25T09:27:42.143Z,6.10
2023-11-25T09:30:13.057Z,6.20
2023-11-25T09:32:42.173Z,6.30
2023-11-25T09:35:12.858Z,6.40
2023-11-25T09:37:41.500Z,6.50
2023-11-25T09:40:15.678Z,6.50
2023-11-25T09:42:45.341Z,6.60
2023-11-25T09:45:15.879Z,6.60
2023-11-25T09:47:46.177Z,6.60
2023-11-25T09:50:16.318Z,6.60
2023-11-25T09:52:53.002Z,6.60
2023-11-25T09:55:23.725Z,6.50
2023-11-25T09:57:57.982Z,6.60
2023-11-25T10:00:28.646Z,6.60
2023-11-25T10:02:59.530Z,6.60
2023-11-25T10:05:31.360Z,6.60
2023-11-25T10:08:01.057Z,6.60
2023-11-25T10:10:30.608Z,6.60
2023-11-25T10:12:59.061Z,6.60
2023-11-25T10:15:27.280Z,6.60
2023-11-25T10:17:56.450Z,6.60
2023-11-25T10:20:24.894Z,6.70
2023-11-25T10:22:57.714Z,6.70
2023-11-25T10:25:28.551Z,6.80
2023-11-25T10:27:57.306Z,6.80
2023-11-25T10:30:26.217Z,6.80
2023-11-25T10:32:58.363Z,6.80
2023-11-25T10:35:27.123Z,6.80
2023-11-25T10:37:56.915Z,6.80
2023-11-25T10:40:26.229Z,6.80
2023-11-25T10:42:55.547Z,6.90
2023-11-25T10:45:28.259Z,6.90
2023-11-25T10:47:57.867Z,6.90
2023-11-25T10:50:26.712Z,6.90
2023-11-25T10:52:59.418Z,7.00
2023-11-25T10:55:29.793Z,7.00
2023-11-25T10:58:01.515Z,7.00
2023-11-25T11:00:31.346Z,7.00
2023-11-25T11:03:03.065Z,7.00
2023-11-25T11:05:36.538Z,7.00
2023-11-25T11:08:10.169Z,7.10
2023-11-25T11:10:49.579Z,7.00
2023-11-25T11:13:25.458Z,7.00
2023-11-25T11:15:57.034Z,7.00
2023-11-25T11:18:28.739Z,7.00
2023-11-25T11:21:00.670Z,7.00
2023-11-25T11:23:34.082Z,6.90
2023-11-25T11:26:15.321Z,6.90
2023-11-25T11:28:48.769Z,6.80
2023-11-25T11:32:00.531Z,6.50
2023-11-25T11:34:30.826Z,6.10
2023-11-25T11:36:59.599Z,6.00
2023-11-25T11:39:43.178Z,6.20
2023-11-25T11:42:34.176Z,6.30
2023-11-25T11:45:22.186Z,6.40
2023-11-25T11:47:54.596Z,6.40
2023-11-25T11:50:25.987Z,6.50
2023-11-25T11:53:25.152Z,6.60
2023-11-25T11:55:56.428Z,6.60
2023-11-25T11:58:26.645Z,6.60
2023-11-25T12:01:09.344Z,6.60
2023-11-25T12:03:39.297Z,6.60
2023-11-25T12:06:10.091Z,6.50
2023-11-25T12:08:38.409Z,6.50
2023-11-25T12:11:08.468Z,6.40
2023-11-25T12:13:38.625Z,6.40
2023-11-25T12:16:09.736Z,6.40
2023-11-25T12:18:38.397Z,6.30
2023-11-25T12:21:07.260Z,6.30
2023-11-25T12:23:44.988Z,6.30
2023-11-25T12:26:24.121Z,6.30
2023-11-25T12:28:52.709Z,6.30
2023-11-25T12:31:21.169Z,6.20
2023-11-25T12:33:49.735Z,6.20
2023-11-25T12:36:18.239Z,6.20
2023-11-25T12:38:46.485Z,6.20
2023-11-25T12:41:16.712Z,6.20
2023-11-25T12:44:11.153Z,6.30
2023-11-25T12:46:40.335Z,6.20
2023-11-25T12:49:22.906Z,6.20
2023-11-25T12:51:52.388Z,6.30
2023-11-25T12:54:21.107Z,6.30
2023-11-25T12:56:53.268Z,6.30
2023-11-25T12:59:24.873Z,6.30
2023-11-25T13:01:53.331Z,6.40
2023-11-25T13:04:21.819Z,6.40
2023-11-25T13:06:50.734Z,6.40
2023-11-25T13:09:23.197Z,6.30
2023-11-25T13:11:51.484Z,6.30
2023-11-25T13:14:20.308Z,6.20
2023-11-25T13:16:49.980Z,6.10
2023-11-25T13:19:18.221Z,6.00
2023-11-25T13:21:46.420Z,5.90
2023-11-25T13:24:14.943Z,5.90
2023-11-25T13:26:43.648Z,5.80
2023-11-25T13:29:11.933Z,5.70
2023-11-25T13:31:40.928Z,5.80
2023-11-25T13:34:12.641Z,5.70
2023-11-25T13:36:41.711Z,5.70
2023-11-25T13:39:15.441Z,5.60
2023-11-25T13:41:45.708Z,5.60
2023-11-25T13:44:14.009Z,5.60
2023-11-25T13:46:42.971Z,5.60
2023-11-25T13:49:13.696Z,5.60
2023-11-25T13:51:41.954Z,5.60
2023-11-25T13:54:11.260Z,5.50
2023-11-25T13:56:39.487Z,5.50
2023-11-25T13:59:08.330Z,5.50
2023-11-25T14:01:37.010Z,5.40
2023-11-25T14:04:05.625Z,5.40
2023-11-25T14:06:35.193Z,5.30
2023-11-25T14:09:04.441Z,5.30
2023-11-25T14:11:32.925Z,5.20
2023-11-25T14:14:01.750Z,5.10
2023-11-25T14:16:30.240Z,5.00
2023-11-25T14:18:58.468Z,4.90
2023-11-25T14:21:26.661Z,4.80
2023-11-25T14:23:56.216Z,4.80
2023-11-25T14:26:27.010Z,4.90
2023-11-25T14:28:55.487Z,4.90
2023-11-25T14:31:23.730Z,4.90
2023-11-25T14:33:52.220Z,4.90
2023-11-25T14:36:20.724Z,4.90
2023-11-25T14:38:48.923Z,5.00
2023-11-25T14:41:24.139Z,5.00
2023-11-25T14:43:52.562Z,5.00
2023-11-25T14:46:21.059Z,4.90
2023-11-25T14:48:49.349Z,4.90
2023-11-25T14:51:17.693Z,5.00
2023-11-25T14:53:45.896Z,4.90
2023-11-25T14:56:14.190Z,4.90
2023-11-25T14:58:43.862Z,4.80
2023-11-25T15:01:12.217Z,4.80
2023-11-25T15:03:41.055Z,4.80
2023-11-25T15:06:10.503Z,4.70
2023-11-25T15:08:38.820Z,4.70
2023-11-25T15:11:07.891Z,4.90
2023-11-25T15:13:36.827Z,4.90
2023-11-25T15:16:07.324Z,5.00
2023-11-25T15:18:35.597Z,5.10
2023-11-25T15:21:05.202Z,5.10
2023-11-25T15:23:33.391Z,5.10
2023-11-25T15:26:01.896Z,5.20
2023-11-25T15:28:30.256Z,5.20
2023-11-25T15:30:58.554Z,5.40
2023-11-25T15:33:28.485Z,5.40
2023-11-25T15:35:56.703Z,5.40
2023-11-25T15:38:24.894Z,5.40
2023-11-25T15:40:53.103Z,5.50
2023-11-25T15:43:21.382Z,5.40
2023-11-25T15:45:49.652Z,5.30
2023-11-25T15:48:18.420Z,5.20
2023-11-25T15:50:48.331Z,5.10
2023-11-25T15:53:16.672Z,5.00
2023-11-25T15:55:44.971Z,4.90
2023-11-25T15:58:13.930Z,4.80
2023-11-25T16:00:42.477Z,4.80
2023-11-25T16:03:10.848Z,4.70
2023-11-25T16:05:39.169Z,4.70
2023-11-25T16:08:08.964Z,4.70
2023-11-25T16:10:37.343Z,4.80
2023-11-25T16:13:07.541Z,4.80
2023-11-25T16:15:35.704Z,4.90
2023-11-25T16:18:04.481Z,4.90
2023-11-25T16:20:33.347Z,4.90
2023-11-25T16:23:01.604Z,4.90
2023-11-25T16:25:31.292Z,4.90
2023-11-25T16:27:59.524Z,4.80
2023-11-25T16:30:27.792Z,4.90
2023-11-25T16:32:56.017Z,4.90
2023-11-25T16:35:24.472Z,4.90
2023-11-25T16:37:52.712Z,4.90
2023-11-25T16:40:23.605Z,4.90
2023-11-25T16:42:53.268Z,4.90
2023-11-25T16:45:23.434Z,5.00
2023-11-25T16:47:52.134Z,5.10
2023-11-25T16:50:21.653Z,5.10
2023-11-25T16:52:50.056Z,5.10
2023-11-25T16:55:18.318Z,5.20
2023-11-25T16:57:47.760Z,5.10
2023-11-25T17:00:18.418Z,5.20
2023-11-25T17:02:46.934Z,5.20
2023-11-25T17:05:15.414Z,5.10
2023-11-25T17:07:43.748Z,5.20
2023-11-25T17:10:12.089Z,5.10
2023-11-25T17:12:40.267Z,5.10
2023-11-25T17:15:09.575Z,5.10
2023-11-25T17:17:42.225Z,5.10
2023-11-25T17:20:11.946Z,5.10
2023-11-25T17:22:40.342Z,5.10
2023-11-25T17:25:10.224Z,5.20
2023-11-25T17:27:38.454Z,5.20
2023-11-25T17:30:07.813Z,5.30
2023-11-25T17:32:36.303Z,5.30
2023-11-25T17:35:06.740Z,5.40
2023-11-25T17:37:35.054Z,5.40
2023-11-25T17:40:04.382Z,5.40
2023-11-25T17:42:32.667Z,5.30
2023-11-25T17:45:00.833Z,5.30
2023-11-25T17:47:29.027Z,5.20
2023-11-25T17:49:57.251Z,5.10
2023-11-25T17:52:26.839Z,5.00
2023-11-25T17:54:54.973Z,5.00
2023-11-25T17:57:23.121Z,5.10
2023-11-25T17:59:51.322Z,5.10
2023-11-25T18:02:20.501Z,5.20
2023-11-25T18:04:48.731Z,5.10
2023-11-25T18:07:16.914Z,5.10
2023-11-25T18:09:46.467Z,5.20
2023-11-25T18:12:14.928Z,5.40
2023-11-25T18:14:43.240Z,5.30
2023-11-25T18:17:11.870Z,5.00
2023-11-25T18:19:40.292Z,4.90
2023-11-25T18:22:10.447Z,4.70
2023-11-25T18:24:38.709Z,4.70
2023-11-25T18:27:08.614Z,4.60
2023-11-25T18:29:36.836Z,4.60
2023-11-25T18:32:05.802Z,4.50
2023-11-25T18:34:50.650Z,4.50
2023-11-25T18:37:18.960Z,4.40
2023-11-25T18:39:47.274Z,4.40
2023-11-25T18:42:18.521Z,4.40
2023-11-25T18:44:47.140Z,4.30
2023-11-25T18:47:15.542Z,4.30
2023-11-25T18:49:44.098Z,4.40
2023-11-25T18:52:12.539Z,4.40
2023-11-25T18:54:40.866Z,4.40
2023-11-25T18:57:09.119Z,4.20
2023-11-25T18:59:39.026Z,4.10
2023-11-25T19:02:07.817Z,4.10
2023-11-25T19:04:36.209Z,4.10
2023-11-25T19:07:04.502Z,4.00
2023-11-25T19:09:32.932Z,4.00
2023-11-25T19:12:01.846Z,4.00
2023-11-25T19:14:31.342Z,4.10
2023-11-25T19:17:01.091Z,4.10
2023-11-25T19:19:29.509Z,4.00
2023-11-25T19:21:58.505Z,4.00
2023-11-25T19:24:26.679Z,4.00
2023-11-25T19:26:54.994Z,4.10
2023-11-25T19:29:23.278Z,4.20
2023-11-25T19:31:51.534Z,4.30
2023-11-25T19:34:21.298Z,4.30
2023-11-25T19:36:49.718Z,4.40
2023-11-25T19:39:18.164Z,4.40
2023-11-25T19:41:46.376Z,4.50
2023-11-25T19:44:15.314Z,4.50
2023-11-25T19:46:43.633Z,4.60
2023-11-25T19:49:14.147Z,4.60
2023-11-25T19:51:44.108Z,4.60
2023-11-25T19:54:12.638Z,4.60
2023-11-25T19:56:40.887Z,4.60
2023-11-25T19:59:09.317Z,4.60
2023-11-25T20:01:40.498Z,4.60
2023-11-25T20:04:08.847Z,4.70
2023-11-25T20:06:37.335Z,4.70
2023-11-25T20:09:07.514Z,4.70
2023-11-25T20:11:35.696Z,4.70
2023-11-25T20:14:04.880Z,4.80
2023-11-25T20:16:36.131Z,4.90
2023-11-25T20:19:04.920Z,4.90
2023-11-25T20:21:33.267Z,4.90
2023-11-25T20:24:01.676Z,4.90
2023-11-25T20:26:31.636Z,4.90
2023-11-25T20:29:00.365Z,4.90
2023-11-25T20:31:28.691Z,4.90
2023-11-25T20:33:57.220Z,4.90
2023-11-25T20:36:25.486Z,4.90
2023-11-25T20:38:53.832Z,4.80
2023-11-25T20:41:22.087Z,4.90
2023-11-25T20:43:52.682Z,4.90
2023-11-25T20:46:21.938Z,4.90
2023-11-25T20:48:50.619Z,4.90
2023-11-25T20:51:23.228Z,4.80
2023-11-25T20:53:52.079Z,4.70
2023-11-25T20:56:20.412Z,4.60
2023-11-25T20:58:49.012Z,4.50
2023-11-25T21:01:18.837Z,4.50
2023-11-25T21:03:47.351Z,4.40
2023-11-25T21:06:15.858Z,4.50
2023-11-25T21:08:44.761Z,4.50
2023-11-25T21:11:13.279Z,4.40
2023-11-25T21:13:41.629Z,4.40
2023-11-25T21:16:10.466Z,4.30
2023-11-25T21:18:40.500Z,4.30
2023-11-25T21:21:09.236Z,4.20
2023-11-25T21:23:37.503Z,4.10
2023-11-25T21:26:07.196Z,4.10
2023-11-25T21:28:35.570Z,4.00
2023-11-25T21:31:04.062Z,4.00
2023-11-25T21:33:35.009Z,4.00
2023-11-25T21:36:05.177Z,4.00
2023-11-25T21:38:33.762Z,4.00
2023-11-25T21:41:02.225Z,4.10
2023-11-25T21:43:31.016Z,4.10
2023-11-25T21:46:00.067Z,4.10
2023-11-25T21:48:28.886Z,4.20
2023-11-25T21:50:57.543Z,4.20
2023-11-25T21:53:27.954Z,4.20
2023-11-25T21:55:57.210Z,4.20
2023-11-25T21:58:25.802Z,4.20
2023-11-25T22:00:55.015Z,4.20
2023-11-25T22:03:24.262Z,4.20
2023-11-25T22:05:52.878Z,4.20
2023-11-25T22:08:21.759Z,4.20
2023-11-25T22:10:51.946Z,4.20
2023-11-25T22:13:21.727Z,4.20
2023-11-25T22:15:50.339Z,4.20
2023-11-25T22:18:18.603Z,4.00
2023-11-25T22:20:48.602Z,3.90
2023-11-25T22:23:18.068Z,3.80
2023-11-25T22:25:55.841Z,3.70
2023-11-25T22:28:25.923Z,3.80
2023-11-25T22:30:54.708Z,3.80
2023-11-25T22:33:22.895Z,3.80
2023-11-25T22:35:58.261Z,3.90
2023-11-25T22:38:29.610Z,4.00
2023-11-25T22:40:57.988Z,4.00
2023-11-25T22:43:27.996Z,3.90
2023-11-25T22:45:56.257Z,3.90
2023-11-25T22:48:24.678Z,3.90
2023-11-25T22:50:52.897Z,3.80
2023-11-25T22:53:21.156Z,3.80
2023-11-25T22:55:49.664Z,3.70
2023-11-25T22:58:18.005Z,3.70
2023-11-25T23:00:53.201Z,3.70
2023-11-25T23:03:22.442Z,3.70
2023-11-25T23:05:50.717Z,3.70
2023-11-25T23:08:21.029Z,3.70
2023-11-25T23:10:49.474Z,3.70
2023-11-25T23:13:18.099Z,3.60
2023-11-25T23:15:47.665Z,3.60
2023-11-25T23:18:15.816Z,3.60
2023-11-25T23:20:44.109Z,3.60
2023-11-25T23:23:13.492Z,3.60
2023-11-25T23:25:41.950Z,3.60
2023-11-25T23:28:10.172Z,3.60
2023-11-25T23:30:42.170Z,3.60
2023-11-25T23:33:11.797Z,3.60
2023-11-25T23:35:40.031Z,3.60
2023-11-25T23:38:08.297Z,3.70
2023-11-25T23:40:37.015Z,3.80
2023-11-25T23:43:05.540Z,3.80
2023-11-25T23:45:33.940Z,3.80
2023-11-25T23:48:02.105Z,3.70
2023-11-25T23:50:32.313Z,3.70
2023-11-25T23:53:00.545Z,3.70
2023-11-25T23:55:29.201Z,3.70
2023-11-25T23:57:57.396Z,3.70
